Current Weather

Cambridge-Dorchester Rgnl

Cambridge, Maryland (KCGE)

Report from: Tuesday, July 16, 2024 11:05 AM EDT
Current time: Tuesday, July 16, 2024 11:25 AM EDT

Nearby weather – Weather history – Daily summaries
Weather forecast

Temperature32.0°C (89.6°F)
Heat index37.9°C (100.3°F)
Dew point24.0°C (75.2°F)
Winds 6 kts (3.1 m/s, 6.9 mph) South (190°)
Visibility10 mi. (16.1 km)
Clouds Sky clear
Altimeter29.86 in.Hg (1011 mB)
Relative humidity63 %
Density altitude2,409 ft. (734 m)
Remarks Fully automated report
Flight conditions Visual Meteorological Conditions
Raw dataKCGE 161505Z AUTO 19006KT 10SM CLR 32/24 A2986 RMK A01
An error has occurred. This application may no longer respond until reloaded. Reload 🗙